Time;durP1;ratioP1;P1;durP2;ratioP2;P2;SDS_P1;SDS_P2;PMS_P1;PMS_P2;Temp;Humidity;BMP_temperature;BMP_pressure;BME280_temperature;BME280_humidity;BME280_pressure;Samples;Min_cycle;Max_cycle;Signal;HPM_P1;HPM_P2
2023/04/23 00:00:47;;;;;;;;;;;;;;;12.61;92.09;99865.78;5044418;28;19974;-85
2023/04/23 00:03:13;;;;;;;;;;;;;;;12.56;94.10;99865.50;5046421;28;20337;-86
2023/04/23 00:05:40;;;;;;;;;;;;;;;12.56;91.91;99863.69;5044940;28;19929;-86
2023/04/23 00:08:06;;;;;;;;;;;;;;;12.54;93.96;99863.06;5048430;28;19944;-86
2023/04/23 00:10:31;;;;;;;;;;;;;;;12.51;93.23;99868.69;5047845;28;19921;-86
2023/04/23 00:12:57;;;;;;;;;;;;;;;12.52;93.82;99865.06;5049802;28;19956;-86
2023/04/23 00:15:22;;;;;;;;;;;;;;;12.49;93.20;99863.59;5035232;28;20440;-86
2023/04/23 00:17:48;;;;;;;;;;;;;;;12.48;93.58;99867.22;5046878;28;19924;-86
2023/04/23 00:20:15;;;;;;;;;;;;;;;12.47;93.74;99870.91;5046653;28;20008;-86
2023/04/23 00:22:44;;;;;;;;;;;;;;;12.45;96.62;99866.78;5052174;28;19921;-86
2023/04/23 00:25:10;;;;;;;;;;;;;;;12.39;97.33;99873.59;5051275;28;19924;-86
2023/04/23 00:27:37;;;;;;;;;;;;;;;12.40;96.05;99866.50;5038486;28;20013;-86
2023/04/23 00:30:03;;;;;;;;;;;;;;;12.37;96.61;99869.50;5042471;28;19925;-87
2023/04/23 00:32:33;;;;;;;;;;;;;;;12.36;96.91;99870.50;5048341;28;19920;-87
2023/04/23 00:34:58;;;;;;;;;;;;;;;12.31;97.45;99871.84;5045614;28;20333;-86
2023/04/23 00:37:24;;;;;;;;;;;;;;;12.28;99.27;99871.41;5058599;28;19928;-86
2023/04/23 00:39:49;;;;;;;;;;;;;;;12.26;97.79;99871.56;5047352;28;19935;-86
2023/04/23 00:42:16;;;;;;;;;;;;;;;12.26;97.66;99874.22;5050474;28;20417;-86
2023/04/23 00:44:41;;;;;;;;;;;;;;;12.22;98.90;99874.75;5046728;28;19925;-86
2023/04/23 00:47:06;;;;;;;;;;;;;;;12.22;99.05;99869.47;5039805;28;20366;-86
2023/04/23 00:49:33;;;;;;;;;;;;;;;12.23;99.04;99873.78;5054037;28;19927;-85
2023/04/23 00:51:59;;;;;;;;;;;;;;;12.20;99.28;99871.47;5046598;28;19920;-86
2023/04/23 00:54:24;;;;;;;;;;;;;;;12.20;99.59;99877.59;5044407;28;19932;-86
2023/04/23 00:56:50;;;;;;;;;;;;;;;12.19;99.34;99872.47;5043697;28;19923;-85
2023/04/23 00:59:16;;;;;;;;;;;;;;;12.19;100.00;99869.81;5040310;28;19920;-86
2023/04/23 01:01:44;;;;;;;;;;;;;;;12.21;98.20;99871.28;5049564;28;19963;-86
2023/04/23 01:04:10;;;;;;;;;;;;;;;12.21;99.14;99876.59;5049479;28;20000;-86
2023/04/23 01:06:36;;;;;;;;;;;;;;;12.22;99.45;99874.75;5054579;28;19921;-86
2023/04/23 01:09:02;;;;;;;;;;;;;;;12.19;100.00;99881.25;5047897;28;19921;-87
2023/04/23 01:11:27;;;;;;;;;;;;;;;12.18;100.00;99874.31;5049785;28;20436;-86
2023/04/23 01:13:53;;;;;;;;;;;;;;;12.19;100.00;99869.81;5045253;28;19928;-87
2023/04/23 01:16:20;;;;;;;;;;;;;;;12.18;99.45;99870.81;5049118;28;20214;-87
2023/04/23 01:18:46;;;;;;;;;;;;;;;12.15;99.61;99873.81;5037188;28;19925;-87
2023/04/23 01:21:12;;;;;;;;;;;;;;;12.13;100.00;99876.66;5044549;28;19920;-86
2023/04/23 01:23:37;;;;;;;;;;;;;;;12.14;99.98;99877.50;5040304;28;19931;-86
2023/04/23 01:26:03;;;;;;;;;;;;;;;12.09;100.00;99880.66;5044567;28;19960;-86
2023/04/23 01:28:29;;;;;;;;;;;;;;;12.10;100.00;99885.78;5043176;28;19920;-87
2023/04/23 01:30:55;;;;;;;;;;;;;;;12.08;100.00;99882.50;5034128;28;19928;-86
2023/04/23 01:33:20;;;;;;;;;;;;;;;12.07;100.00;99893.28;5036202;28;19921;-86
2023/04/23 01:35:48;;;;;;;;;;;;;;;12.06;100.00;99887.16;5037435;28;19928;-86
2023/04/23 01:38:14;;;;;;;;;;;;;;;12.04;100.00;99886.50;5028559;28;19925;-87
2023/04/23 01:40:39;;;;;;;;;;;;;;;12.05;100.00;99889.97;5046225;28;19927;-86
2023/04/23 01:43:05;;;;;;;;;;;;;;;12.05;100.00;99888.13;5040977;28;20012;-86
2023/04/23 01:45:30;;;;;;;;;;;;;;;12.07;100.00;99894.09;5049321;28;20008;-85
2023/04/23 01:47:55;;;;;;;;;;;;;;;12.05;100.00;99893.44;5053281;28;19923;-85
2023/04/23 01:50:23;;;;;;;;;;;;;;;12.04;100.00;99890.97;5054070;28;20007;-85
2023/04/23 01:52:49;;;;;;;;;;;;;;;12.02;100.00;99891.16;5049426;28;20370;-85
2023/04/23 01:55:14;;;;;;;;;;;;;;;12.01;100.00;99900.13;5040489;28;19966;-85
2023/04/23 01:57:39;;;;;;;;;;;;;;;11.98;100.00;99892.50;5048802;28;19917;-86
2023/04/23 02:00:09;;;;;;;;;;;;;;;11.97;100.00;99904.09;5053169;28;19966;-86
2023/04/23 02:02:35;;;;;;;;;;;;;;;11.98;100.00;99900.44;5049942;28;19924;-85
2023/04/23 02:05:04;;;;;;;;;;;;;;;11.98;100.00;99899.63;5041981;28;19921;-85
2023/04/23 02:07:33;;;;;;;;;;;;;;;11.96;100.00;99904.28;5047820;28;19974;-85
2023/04/23 02:09:59;;;;;;;;;;;;;;;11.96;100.00;99912.22;5052682;28;19929;-85
2023/04/23 02:12:24;;;;;;;;;;;;;;;11.95;100.00;99905.28;5045020;28;19955;-86
2023/04/23 02:14:51;;;;;;;;;;;;;;;11.92;100.00;99911.75;5040299;28;19929;-85
2023/04/23 02:17:18;;;;;;;;;;;;;;;11.89;100.00;99912.09;5051522;28;19925;-86
2023/04/23 02:19:43;;;;;;;;;;;;;;;11.90;100.00;99908.47;5052628;28;19928;-85
2023/04/23 02:22:09;;;;;;;;;;;;;;;11.91;100.00;99915.41;5044068;28;19920;-86
2023/04/23 02:24:35;;;;;;;;;;;;;;;11.89;100.00;99906.78;5040001;28;19983;-85
2023/04/23 02:27:00;;;;;;;;;;;;;;;11.89;100.00;99912.94;5041330;28;20298;-85
2023/04/23 02:29:26;;;;;;;;;;;;;;;11.89;100.00;99909.44;5046319;28;19920;-85
2023/04/23 02:31:51;;;;;;;;;;;;;;;11.90;100.00;99908.47;5052029;28;19920;-85
2023/04/23 02:34:16;;;;;;;;;;;;;;;11.87;100.00;99908.81;5034010;28;19955;-85
2023/04/23 02:36:41;;;;;;;;;;;;;;;11.86;100.00;99912.41;5042779;28;20095;-86
2023/04/23 02:39:06;;;;;;;;;;;;;;;11.85;100.00;99908.94;5042182;28;20300;-85
2023/04/23 02:41:32;;;;;;;;;;;;;;;11.87;100.00;99914.13;5047241;28;19921;-85
2023/04/23 02:43:57;;;;;;;;;;;;;;;11.87;100.00;99919.41;5059376;28;19927;-84
2023/04/23 02:46:22;;;;;;;;;;;;;;;11.87;100.00;99914.94;5040933;28;19921;-85
2023/04/23 02:48:47;;;;;;;;;;;;;;;11.90;100.00;99919.06;5049628;28;20370;-85
2023/04/23 02:51:13;;;;;;;;;;;;;;;11.89;100.00;99915.59;5045401;28;20457;-85
2023/04/23 02:53:38;;;;;;;;;;;;;;;11.87;100.00;99917.59;5048341;28;19933;-85
2023/04/23 02:56:03;;;;;;;;;;;;;;;11.87;100.00;99909.63;5039952;28;19932;-86
2023/04/23 02:58:29;;;;;;;;;;;;;;;11.87;100.00;99911.47;5036572;28;20137;-85
2023/04/23 03:00:54;;;;;;;;;;;;;;;11.86;100.00;99909.78;5047108;28;19920;-86
2023/04/23 03:03:20;;;;;;;;;;;;;;;11.85;100.00;99905.50;5040878;28;19921;-85
2023/04/23 03:05:45;;;;;;;;;;;;;;;11.85;100.00;99906.31;5041240;28;19921;-86
2023/04/23 03:08:10;;;;;;;;;;;;;;;11.86;100.00;99905.28;5036097;28;20532;-86
2023/04/23 03:10:35;;;;;;;;;;;;;;;11.87;100.00;99903.53;5042885;28;20011;-86
2023/04/23 03:13:01;;;;;;;;;;;;;;;11.85;100.00;99898.34;5032772;28;19921;-86
2023/04/23 03:15:26;;;;;;;;;;;;;;;11.85;100.00;99898.34;5046550;28;19924;-86
2023/04/23 03:17:52;;;;;;;;;;;;;;;11.83;100.00;99903.00;5042484;28;19929;-85
2023/04/23 03:20:18;;;;;;;;;;;;;;;11.82;100.00;99901.38;5043280;28;20762;-85
2023/04/23 03:22:43;;;;;;;;;;;;;;;11.82;100.00;99898.72;5050694;28;20003;-85
2023/04/23 03:25:08;;;;;;;;;;;;;;;11.83;100.00;99903.00;5050883;28;19992;-86
2023/04/23 03:27:34;;;;;;;;;;;;;;;11.82;100.00;99906.66;5042080;28;19976;-85
2023/04/23 03:29:59;;;;;;;;;;;;;;;11.83;100.00;99902.19;5051278;28;19917;-85
2023/04/23 03:32:24;;;;;;;;;;;;;;;11.83;100.00;99907.47;5046601;28;20022;-85
2023/04/23 03:34:50;;;;;;;;;;;;;;;11.81;100.00;99904.19;5033176;28;19921;-85
2023/04/23 03:37:15;;;;;;;;;;;;;;;11.80;100.00;99906.00;5040636;28;19925;-85
2023/04/23 03:39:40;;;;;;;;;;;;;;;11.80;100.00;99908.66;5046656;28;19925;-85
2023/04/23 03:42:05;;;;;;;;;;;;;;;11.78;100.00;99905.34;5039785;28;20294;-87
2023/04/23 03:44:30;;;;;;;;;;;;;;;11.78;100.00;99913.31;5050345;28;19952;-85
2023/04/23 03:46:56;;;;;;;;;;;;;;;11.77;100.00;99921.41;5051508;28;19924;-85
2023/04/23 03:49:21;;;;;;;;;;;;;;;11.77;100.00;99916.13;5047740;28;19920;-85
2023/04/23 03:51:47;;;;;;;;;;;;;;;11.76;100.00;99911.81;5059342;28;20463;-85
2023/04/23 03:54:12;;;;;;;;;;;;;;;11.76;100.00;99912.66;5044462;28;20304;-85
2023/04/23 03:56:37;;;;;;;;;;;;;;;11.76;100.00;99917.13;5032632;28;19971;-85
2023/04/23 03:59:02;;;;;;;;;;;;;;;11.76;100.00;99917.94;5035026;28;20637;-85
2023/04/23 04:01:27;;;;;;;;;;;;;;;11.74;100.00;99909.34;5052336;28;19917;-85
2023/04/23 04:03:53;;;;;;;;;;;;;;;11.74;100.00;99919.13;5040357;28;19959;-85
2023/04/23 04:06:18;;;;;;;;;;;;;;;11.73;100.00;99915.66;5045809;28;19970;-85
2023/04/23 04:08:43;;;;;;;;;;;;;;;11.74;100.00;99916.47;5044258;28;19921;-84
2023/04/23 04:11:08;;;;;;;;;;;;;;;11.72;100.00;99918.47;5051169;28;20515;-87
2023/04/23 04:13:33;;;;;;;;;;;;;;;11.69;100.00;99915.16;5051426;28;20019;-85
2023/04/23 04:15:58;;;;;;;;;;;;;;;11.69;100.00;99917.81;5042929;28;19918;-86
2023/04/23 04:18:24;;;;;;;;;;;;;;;11.68;100.00;99913.53;5051382;28;19952;-84
2023/04/23 04:20:50;;;;;;;;;;;;;;;11.68;100.00;99921.47;5045221;28;20398;-84
2023/04/23 04:23:15;;;;;;;;;;;;;;;11.68;100.00;99925.94;5049476;28;19925;-85
2023/04/23 04:25:41;;;;;;;;;;;;;;;11.68;100.00;99931.25;5043252;28;20302;-86
2023/04/23 04:28:10;;;;;;;;;;;;;;;11.67;100.00;99934.88;5042623;28;19946;-85
2023/04/23 04:30:37;;;;;;;;;;;;;;;11.67;100.00;99941.00;5053445;28;19917;-85
2023/04/23 04:33:02;;;;;;;;;;;;;;;11.68;100.00;99940.00;5051745;28;19924;-85
2023/04/23 04:35:27;;;;;;;;;;;;;;;11.68;100.00;99933.91;5049076;28;19925;-84
2023/04/23 04:37:53;;;;;;;;;;;;;;;11.66;100.00;99928.75;5051440;28;19920;-86
2023/04/23 04:40:19;;;;;;;;;;;;;;;11.63;100.00;99934.41;5038542;28;20485;-84
2023/04/23 04:42:45;;;;;;;;;;;;;;;11.64;100.00;99935.22;5039223;28;20570;-86
2023/04/23 04:45:10;;;;;;;;;;;;;;;11.60;100.00;99933.91;5051230;28;20363;-85
2023/04/23 04:47:35;;;;;;;;;;;;;;;11.61;100.00;99928.47;5045342;28;19931;-87
2023/04/23 04:50:01;;;;;;;;;;;;;;;11.57;100.00;99932.44;5053831;28;19921;-86
2023/04/23 04:52:26;;;;;;;;;;;;;;;11.58;100.00;99931.44;5052631;28;19997;-86
2023/04/23 04:54:51;;;;;;;;;;;;;;;11.57;100.00;99928.97;5052002;28;20368;-86
2023/04/23 04:57:17;;;;;;;;;;;;;;;11.57;100.00;99935.09;5052563;28;19996;-85
2023/04/23 04:59:42;;;;;;;;;;;;;;;11.57;100.00;99937.72;5053066;28;19920;-86
2023/04/23 05:02:07;;;;;;;;;;;;;;;11.58;100.00;99931.44;5045401;28;19943;-85
2023/04/23 05:04:33;;;;;;;;;;;;;;;11.60;100.00;99931.28;5045605;28;19921;-86
2023/04/23 05:06:58;;;;;;;;;;;;;;;11.62;100.00;99940.69;5050280;28;19921;-86
2023/04/23 05:09:24;;;;;;;;;;;;;;;11.65;100.00;99934.22;5060054;28;20301;-86
2023/04/23 05:11:49;;;;;;;;;;;;;;;11.66;100.00;99934.06;5059632;28;19916;-87
2023/04/23 05:14:14;;;;;;;;;;;;;;;11.66;100.00;99936.69;5054041;28;19921;-86
2023/04/23 05:16:39;;;;;;;;;;;;;;;11.65;100.00;99942.16;5048585;28;19924;-86
2023/04/23 05:19:05;;;;;;;;;;;;;;;11.67;100.00;99946.28;5052555;28;19924;-86
2023/04/23 05:21:30;;;;;;;;;;;;;;;11.69;100.00;99954.88;5054231;28;19921;-85
2023/04/23 05:23:55;;;;;;;;;;;;;;;11.72;100.00;99944.94;5045080;28;19996;-85
2023/04/23 05:26:20;;;;;;;;;;;;;;;11.73;100.00;99942.13;5052656;28;19972;-86
2023/04/23 05:28:46;;;;;;;;;;;;;;;11.79;100.00;99935.31;5051585;28;20071;-85
2023/04/23 05:31:11;;;;;;;;;;;;;;;11.84;99.87;99933.78;5051160;28;19963;-86
2023/04/23 05:33:36;;;;;;;;;;;;;;;11.84;100.00;99947.03;5042125;28;19932;-84
2023/04/23 05:36:02;;;;;;;;;;;;;;;11.90;99.92;99942.91;5049281;28;19989;-85
2023/04/23 05:38:27;;;;;;;;;;;;;;;11.90;100.00;99935.78;5047718;28;19939;-86
2023/04/23 05:40:52;;;;;;;;;;;;;;;11.90;99.94;99940.25;5051357;28;19917;-85
2023/04/23 05:43:17;;;;;;;;;;;;;;;11.91;99.81;99939.25;5041259;28;20298;-85
2023/04/23 05:45:43;;;;;;;;;;;;;;;11.94;100.00;99932.75;5052262;28;20367;-85
2023/04/23 05:48:08;;;;;;;;;;;;;;;11.98;99.60;99934.88;5046349;28;19921;-85
2023/04/23 05:50:33;;;;;;;;;;;;;;;12.02;99.62;99938.03;5052686;28;19923;-86
2023/04/23 05:52:58;;;;;;;;;;;;;;;12.08;99.09;99938.16;5048550;28;20294;-86
2023/04/23 05:55:24;;;;;;;;;;;;;;;12.13;99.27;99942.09;5049624;28;19990;-86
2023/04/23 05:57:49;;;;;;;;;;;;;;;12.21;98.36;99936.75;5051344;28;19921;-84
2023/04/23 06:00:15;;;;;;;;;;;;;;;12.28;98.33;99935.84;5050974;28;20037;-85
2023/04/23 06:02:41;;;;;;;;;;;;;;;12.38;97.80;99932.94;5044400;28;19929;-85
2023/04/23 06:05:06;;;;;;;;;;;;;;;12.42;97.85;99928.97;5049621;28;20027;-85
2023/04/23 06:07:32;;;;;;;;;;;;;;;12.49;97.23;99932.53;5050769;28;19932;-85
2023/04/23 06:09:57;;;;;;;;;;;;;;;12.58;97.16;99927.97;5051665;28;20330;-85
2023/04/23 06:12:22;;;;;;;;;;;;;;;12.71;96.65;99930.84;5047872;28;19936;-87
2023/04/23 06:14:48;;;;;;;;;;;;;;;12.82;96.25;99928.75;5041980;28;20006;-85
2023/04/23 06:17:13;;;;;;;;;;;;;;;12.90;95.92;99941.94;5050279;28;19921;-84
2023/04/23 06:19:38;;;;;;;;;;;;;;;12.99;94.48;99945.31;5043999;28;19931;-85
2023/04/23 06:22:04;;;;;;;;;;;;;;;13.03;93.73;99942.13;5050081;28;20294;-85
2023/04/23 06:24:29;;;;;;;;;;;;;;;13.08;94.06;99949.53;5038925;28;20388;-86
2023/04/23 06:26:55;;;;;;;;;;;;;;;13.16;94.23;99952.94;5042108;28;19920;-85
2023/04/23 06:29:20;;;;;;;;;;;;;;;13.17;92.83;99948.47;5048767;28;19916;-85
2023/04/23 06:31:45;;;;;;;;;;;;;;;13.18;92.63;99950.13;5041805;28;19952;-86
2023/04/23 06:34:10;;;;;;;;;;;;;;;13.21;92.38;99935.66;5042885;28;20550;-85
2023/04/23 06:36:35;;;;;;;;;;;;;;;13.10;91.73;99935.09;5057004;28;19920;-85
2023/04/23 06:39:01;;;;;;;;;;;;;;;13.08;92.31;99939.75;5049022;28;20473;-85
2023/04/23 06:41:26;;;;;;;;;;;;;;;13.05;92.77;99934.81;5035984;28;19960;-85
2023/04/23 06:43:51;;;;;;;;;;;;;;;13.06;92.67;99930.31;5037227;28;19921;-84
2023/04/23 06:46:17;;;;;;;;;;;;;;;12.93;93.08;99925.66;5043467;28;20012;-85
2023/04/23 06:48:42;;;;;;;;;;;;;;;12.87;93.44;99921.91;5056667;28;19920;-87
2023/04/23 06:51:08;;;;;;;;;;;;;;;12.94;93.63;99924.63;5060818;28;20454;-85
2023/04/23 06:53:33;;;;;;;;;;;;;;;13.23;94.49;99923.84;5049933;28;19983;-85
2023/04/23 06:55:59;;;;;;;;;;;;;;;13.47;93.73;99924.59;5053172;28;19928;-85
2023/04/23 06:58:30;;;;;;;;;;;;;;;13.50;92.10;99930.34;5041657;28;20493;-86
2023/04/23 07:01:03;;;;;;;;;;;;;;;13.47;91.36;99917.44;5052610;28;19921;-86
2023/04/23 07:03:28;;;;;;;;;;;;;;;13.46;91.89;99918.44;5051936;28;19920;-85
2023/04/23 07:05:53;;;;;;;;;;;;;;;13.44;90.50;99927.59;5051983;28;20030;-86
2023/04/23 07:08:20;;;;;;;;;;;;;;;13.32;89.19;99928.09;5048386;28;19922;-87
2023/04/23 07:10:45;;;;;;;;;;;;;;;13.65;91.16;99921.53;5051026;28;19920;-87
2023/04/23 07:13:11;;;;;;;;;;;;;;;14.35;92.41;99915.50;5043143;28;20008;-87
2023/04/23 07:15:36;;;;;;;;;;;;;;;15.09;87.72;99919.56;5048435;28;19924;-85
2023/04/23 07:18:02;;;;;;;;;;;;;;;15.43;84.32;99909.88;5051988;28;19974;-86
2023/04/23 07:20:28;;;;;;;;;;;;;;;15.80;83.65;99916.59;5046346;28;19971;-86
2023/04/23 07:22:53;;;;;;;;;;;;;;;16.29;82.36;99910.13;5048402;28;19986;-86
2023/04/23 07:25:20;;;;;;;;;;;;;;;16.68;74.78;99907.66;5048573;28;19927;-85
2023/04/23 07:27:45;;;;;;;;;;;;;;;17.07;76.54;99914.81;5046837;28;20404;-87
2023/04/23 07:30:11;;;;;;;;;;;;;;;17.37;73.18;99914.31;5049478;28;19971;-86
2023/04/23 07:32:36;;;;;;;;;;;;;;;17.65;72.55;99905.16;5049996;28;19928;-86
2023/04/23 07:35:01;;;;;;;;;;;;;;;17.86;68.25;99904.84;5045619;28;19959;-87
2023/04/23 07:37:26;;;;;;;;;;;;;;;18.07;69.70;99910.88;5046458;28;19917;-85
2023/04/23 07:39:52;;;;;;;;;;;;;;;18.41;66.81;99894.38;5047147;28;19932;-87
2023/04/23 07:42:18;;;;;;;;;;;;;;;18.82;68.55;99892.19;5042062;28;19943;-88
2023/04/23 07:44:43;;;;;;;;;;;;;;;19.26;68.66;99892.97;5049378;28;20414;-86
2023/04/23 07:47:08;;;;;;;;;;;;;;;19.56;63.43;99890.31;5046250;28;20522;-88
2023/04/23 07:49:34;;;;;;;;;;;;;;;19.69;64.67;99884.81;5044186;28;19921;-86
2023/04/23 07:51:59;;;;;;;;;;;;;;;19.92;64.50;99892.09;5048702;28;19920;-88
2023/04/23 07:54:25;;;;;;;;;;;;;;;20.04;60.47;99889.44;5045361;28;19928;-87
2023/04/23 07:56:50;;;;;;;;;;;;;;;19.63;58.55;99885.66;5052289;28;19921;-86
2023/04/23 07:59:16;;;;;;;;;;;;;;;19.38;61.09;99899.22;5052746;28;19925;-85
2023/04/23 08:01:41;;;;;;;;;;;;;;;19.42;60.47;99891.53;5046663;28;19917;-86
2023/04/23 08:04:06;;;;;;;;;;;;;;;18.98;60.47;99888.94;5051604;28;19927;-85
2023/04/23 08:06:34;;;;;;;;;;;;;;;18.64;61.27;99882.25;5051160;28;19925;-85
2023/04/23 08:08:59;;;;;;;;;;;;;;;18.41;61.14;99886.34;5052410;28;20376;-85
2023/04/23 08:11:24;;;;;;;;;;;;;;;18.35;63.15;99883.72;5047221;28;19939;-85
2023/04/23 08:13:50;;;;;;;;;;;;;;;18.67;63.53;99882.63;5043979;28;19917;-86
2023/04/23 08:16:15;;;;;;;;;;;;;;;19.06;60.81;99877.91;5051797;28;19940;-86
2023/04/23 08:18:40;;;;;;;;;;;;;;;19.38;62.21;99871.56;5052135;28;19971;-86
2023/04/23 08:21:06;;;;;;;;;;;;;;;19.48;60.15;99874.53;5051591;28;20016;-87
2023/04/23 08:23:31;;;;;;;;;;;;;;;19.92;60.27;99872.50;5054587;28;19928;-86
2023/04/23 08:25:56;;;;;;;;;;;;;;;20.44;56.72;99866.53;5049855;28;19921;-88
2023/04/23 08:28:21;;;;;;;;;;;;;;;20.87;56.41;99873.44;5034633;28;20391;-86
2023/04/23 08:30:47;;;;;;;;;;;;;;;21.25;56.71;99810.25;5046002;28;20019;-86
2023/04/23 08:33:13;;;;;;;;;;;;;;;21.54;53.58;99723.09;5053731;28;19921;-86
2023/04/23 08:35:38;;;;;;;;;;;;;;;21.69;53.04;99714.50;5052947;28;20023;-87
2023/04/23 08:38:03;;;;;;;;;;;;;;;22.02;51.58;99724.44;5054837;28;19920;-87
2023/04/23 08:40:29;;;;;;;;;;;;;;;21.77;52.87;99722.16;5052363;28;19928;-87
2023/04/23 08:43:00;;;;;;;;;;;;;;;20.94;52.72;99702.94;5038226;28;19917;-86
2023/04/23 08:45:26;;;;;;;;;;;;;;;;;;5040715;28;19921;-87
2023/04/23 08:47:52;;;;;;;;;;;;;;;19.46;nan;99686.25;5045925;28;19921;-87
2023/04/23 08:50:18;;;;;;;;;;;;;;;19.37;nan;99682.28;5079186;28;19920;-86
2023/04/23 08:52:52;;;;;;;;;;;;;;;20.08;nan;99693.91;5043167;28;19917;-86
2023/04/23 08:55:17;;;;;;;;;;;;;;;20.13;nan;99692.13;5042774;28;19955;-86
2023/04/23 08:57:44;;;;;;;;;;;;;;;20.90;nan;99685.66;5044800;28;20325;-86
2023/04/23 09:00:10;;;;;;;;;;;;;;;21.83;nan;99704.19;5042533;28;19929;-86
2023/04/23 09:02:39;;;;;;;;;;;;;;;22.39;nan;99706.91;5047668;28;19925;-86
2023/04/23 09:05:05;;;;;;;;;;;;;;;22.80;nan;99712.78;5040485;28;19982;-86
2023/04/23 09:07:30;;;;;;;;;;;;;;;23.44;nan;99714.81;5040436;28;20309;-86
2023/04/23 09:09:55;;;;;;;;;;;;;;;23.61;nan;99710.09;5043501;28;19925;-86
2023/04/23 09:12:21;;;;;;;;;;;;;;;23.66;nan;99710.13;5045933;28;19999;-85
2023/04/23 09:14:46;;;;;;;;;;;;;;;24.27;nan;99719.75;5046343;28;19925;-86
2023/04/23 09:17:11;;;;;;;;;;;;;;;23.91;nan;99698.75;5046044;28;19921;-85
2023/04/23 09:19:38;;;;;;;;;;;;;;;24.10;nan;99701.81;5042745;28;20003;-87
2023/04/23 09:22:03;;;;;;;;;;;;;;;24.45;nan;99705.75;5045048;28;19924;-86
2023/04/23 09:24:29;;;;;;;;;;;;;;;24.59;nan;99812.34;5041284;28;20339;-86
2023/04/23 09:26:56;;;;;;;;;;;;;;;24.69;nan;99822.41;5047448;28;19921;-87
2023/04/23 09:29:22;;;;;;;;;;;;;;;24.23;nan;99824.81;5048508;28;19921;-87
2023/04/23 09:31:49;;;;;;;;;;;;;;;24.10;nan;99819.88;5043031;28;20023;-87
2023/04/23 09:34:16;;;;;;;;;;;;;;;24.80;nan;99820.59;5042991;28;19929;-88
2023/04/23 09:36:42;;;;;;;;;;;;;;;25.17;nan;99819.63;5046000;28;19925;-86
2023/04/23 09:39:11;;;;;;;;;;;;;;;25.69;nan;99810.56;5037934;28;19931;-86
2023/04/23 09:41:36;;;;;;;;;;;;;;;25.64;nan;99805.16;5002833;28;19947;-84
2023/04/23 09:44:02;;;;;;;;;;;;;;;25.71;nan;99802.19;5004208;28;20012;-86
2023/04/23 09:46:37;;;;;;;;;;;;;;;25.61;nan;99806.50;4999834;28;19921;-87
2023/04/23 09:49:04;;;;;;;;;;;;;;;24.98;nan;99800.41;5029704;28;19921;-86
2023/04/23 09:51:30;;;;;;;;;;;;;;;24.20;nan;99798.31;5029625;28;20279;-86
2023/04/23 09:53:55;;;;;;;;;;;;;;;23.83;nan;99801.00;5025667;28;19928;-86
2023/04/23 09:56:20;;;;;;;;;;;;;;;23.38;nan;99786.78;4998785;28;19925;-87
2023/04/23 09:58:46;;;;;;;;;;;;;;;23.09;nan;99792.41;5022256;28;19930;-86
2023/04/23 10:01:14;;;;;;;;;;;;;;;22.97;nan;99788.19;5021413;28;20748;-86
2023/04/23 10:03:42;;;;;;;;;;;;;;;22.53;nan;99791.69;4996763;28;19964;-86
2023/04/23 10:06:12;;;;;;;;;;;;;;;22.35;nan;99781.19;5002824;28;19929;-86
2023/04/23 10:08:38;;;;;;;;;;;;;;;22.20;nan;99779.91;5008667;28;19929;-86
2023/04/23 10:11:03;;;;;;;;;;;;;;;22.27;nan;99777.03;5022467;28;19922;-86
2023/04/23 10:13:29;;;;;;;;;;;;;;;22.51;nan;99768.75;5003430;28;20410;-86
2023/04/23 10:15:55;;;;;;;;;;;;;;;22.71;nan;99784.38;5015447;28;20013;-86
2023/04/23 10:18:20;;;;;;;;;;;;;;;22.68;nan;99774.91;5020002;28;19948;-85
2023/04/23 10:20:46;;;;;;;;;;;;;;;23.08;nan;99771.91;5017940;28;20421;-86
2023/04/23 10:23:12;;;;;;;;;;;;;;;23.54;nan;99769.66;5019994;28;19921;-86
2023/04/23 10:25:38;;;;;;;;;;;;;;;23.58;nan;99763.78;5008221;28;19928;-86
2023/04/23 10:28:04;;;;;;;;;;;;;;;23.66;nan;99766.00;5009254;28;19932;-86
2023/04/23 10:30:30;;;;;;;;;;;;;;;23.51;nan;99767.50;5013682;28;19921;-87
2023/04/23 10:32:55;;;;;;;;;;;;;;;23.53;nan;99764.53;5029337;28;20009;-86
2023/04/23 10:35:21;;;;;;;;;;;;;;;23.35;nan;99754.09;5017618;28;19936;-87
2023/04/23 10:37:47;;;;;;;;;;;;;;;23.29;nan;99753.25;4997892;28;20239;-87
2023/04/23 10:40:17;;;;;;;;;;;;;;;23.85;nan;99755.66;5030258;28;21283;-87
2023/04/23 10:42:43;;;;;;;;;;;;;;;24.25;nan;99748.91;5042694;28;19922;-88
2023/04/23 10:45:17;;;;;;;;;;;;;;;23.71;nan;99745.25;5049660;28;19943;-87
2023/04/23 10:47:43;;;;;;;;;;;;;;;23.55;nan;99748.91;5040899;28;20342;-86
2023/04/23 10:50:19;;;;;;;;;;;;;;;23.42;nan;99733.94;5048792;28;20298;-86
2023/04/23 10:52:48;;;;;;;;;;;;;;;23.60;nan;99732.75;5039313;28;20387;-88
2023/04/23 10:55:17;;;;;;;;;;;;;;;23.96;nan;99727.66;5046339;28;19974;-86
2023/04/23 10:58:05;;;;;;;;;;;;;;;24.05;nan;99730.66;5042903;28;19928;-87
2023/04/23 11:00:43;;;;;;;;;;;;;;;24.42;nan;99724.41;5039197;28;19929;-87
2023/04/23 11:03:27;;;;;;;;;;;;;;;25.13;nan;99723.88;5040470;28;19921;-86
2023/04/23 11:06:04;;;;;;;;;;;;;;;26.56;nan;99717.59;5044743;28;19928;-88
2023/04/23 11:08:31;;;;;;;;;;;;;;;27.48;nan;99720.59;5050427;28;20015;-88
2023/04/23 11:10:57;;;;;;;;;;;;;;;27.40;nan;99718.47;5036541;28;19932;-87
2023/04/23 11:13:26;;;;;;;;;;;;;;;27.61;nan;99713.69;5074969;28;19928;-84
2023/04/23 11:16:10;;;;;;;;;;;;;;;27.37;nan;99708.19;5037294;28;20367;-85
2023/04/23 11:19:02;;;;;;;;;;;;;;;27.16;nan;99703.97;5070113;28;19925;-85
2023/04/23 11:21:46;;;;;;;;;;;;;;;27.74;nan;99709.47;5036680;28;19928;-85
2023/04/23 11:24:11;;;;;;;;;;;;;;;27.54;nan;99695.00;5046094;28;19927;-86
2023/04/23 11:26:37;;;;;;;;;;;;;;;26.71;nan;99687.66;5042531;28;20008;-85
2023/04/23 11:29:03;;;;;;;;;;;;;;;26.24;nan;99688.91;5035196;28;19992;-85
2023/04/23 11:31:28;;;;;;;;;;;;;;;25.42;nan;99676.28;5041446;28;19987;-85
2023/04/23 11:33:53;;;;;;;;;;;;;;;24.55;nan;99681.53;5037495;28;19921;-84
2023/04/23 11:36:19;;;;;;;;;;;;;;;24.19;nan;99674.31;5036334;28;19988;-85
2023/04/23 11:38:45;;;;;;;;;;;;;;;24.22;nan;99668.38;5042197;28;19962;-85
2023/04/23 11:41:11;;;;;;;;;;;;;;;24.64;nan;99671.00;5044283;28;19951;-85
2023/04/23 11:43:36;;;;;;;;;;;;;;;25.69;nan;99663.56;5049302;28;19925;-85
2023/04/23 11:46:01;;;;;;;;;;;;;;;26.96;nan;99664.19;5042179;28;19928;-86
2023/04/23 11:48:26;;;;;;;;;;;;;;;27.55;nan;99660.50;5047881;28;19935;-85
2023/04/23 11:50:51;;;;;;;;;;;;;;;26.98;nan;99657.41;5050578;28;19921;-84
2023/04/23 11:53:17;;;;;;;;;;;;;;;26.12;nan;99658.59;5047652;28;19978;-85
2023/04/23 11:55:44;;;;;;;;;;;;;;;26.28;nan;99654.75;5050181;28;20535;-85
2023/04/23 11:58:10;;;;;;;;;;;;;;;26.12;nan;99654.00;5055558;28;19972;-86
2023/04/23 12:00:35;;;;;;;;;;;;;;;25.01;nan;99648.38;5052326;28;20012;-85
2023/04/23 12:03:01;;;;;;;;;;;;;;;25.00;nan;99641.34;5050960;28;19921;-85
2023/04/23 12:05:35;;;;;;;;;;;;;;;25.33;nan;99629.19;5071361;28;19925;-85
2023/04/23 12:08:11;;;;;;;;;;;;;;;25.19;nan;99630.81;5042130;28;19948;-85
2023/04/23 12:10:50;;;;;;;;;;;;;;;25.49;nan;99615.66;5055877;28;20298;-85
2023/04/23 12:13:20;;;;;;;;;;;;;;;25.83;nan;99621.28;5045394;28;19947;-86
2023/04/23 12:15:46;;;;;;;;;;;;;;;25.76;nan;99607.22;5050684;28;20019;-84
2023/04/23 12:18:11;;;;;;;;;;;;;;;25.52;nan;99605.09;5050886;28;19921;-86
2023/04/23 12:20:36;;;;;;;;;;;;;;;25.31;nan;99600.78;5037854;28;19936;-85
2023/04/23 12:23:08;;;;;;;;;;;;;;;25.03;nan;99600.25;5059446;28;20306;-85
2023/04/23 12:25:34;;;;;;;;;;;;;;;24.50;nan;99589.63;5048913;28;19971;-85
2023/04/23 12:28:00;;;;;;;;;;;;;;;24.73;nan;99587.50;5041385;28;20056;-86
2023/04/23 12:30:28;;;;;;;;;;;;;;;24.53;nan;99580.97;5036815;28;20023;-85
2023/04/23 12:33:00;;;;;;;;;;;;;;;24.48;nan;99585.53;5046086;28;20051;-86
2023/04/23 12:35:48;;;;;;;;;;;;;;;23.96;nan;99579.16;5045702;28;20473;-88
2023/04/23 12:38:22;;;;;;;;;;;;;;;23.70;nan;99575.47;5046568;28;19929;-86
2023/04/23 12:40:47;;;;;;;;;;;;;;;23.43;nan;99564.78;5051199;28;19929;-86
2023/04/23 12:43:12;;;;;;;;;;;;;;;23.42;nan;99563.97;5053167;28;20271;-86
2023/04/23 12:45:38;;;;;;;;;;;;;;;23.57;nan;99562.44;5051477;28;19920;-86